ELY023 LLBG-KEWR
Flight info
| Callsign | ELY023 |
|---|---|
| Flight time | N/A |
| Altitude | 34000 |
| Route | SUVAS DCT TEZAK N128 OTHON DCT VAXOS UN128 RDS UL609 MES DCT DISOR/N0488F360 DCT LONTA UL608 DOLEV DCT YUYUH DCT GENLU DCT PODOB DCT BOSNA DCT MARIL DCT OKSIG DCT KUSIB DCT GORPA DCT TATZI DCT BABEG DCT LIRSU DCT DENUT L610 RAPIX DCT LESTA UP6 RODOL UM65 TENSO L603 BELOX DCT REMSI DCT MASOP DCT APSOV DCT RUXIN DCT SUNOT/M085F360 DCT 5730N02000W 5730N03000W 57N040W 5530N05000W DCT KODIK/N0491F360 N690A QUBIS/N0482F400 DCT KJOHN DCT HANAA FLOSI4 |
| Aircraft | B789/H-SACDE1E2E3GHIJ1J3J4J5LM1OP2RVWXY/LB2D1 |
Departure
| Time | N/A |
|---|---|
| Airport | Ben Gurion International Airport (LLBG) |
Arrival
| Time | 2026-05-05 18:38 |
|---|---|
| Airport | Newark Liberty International Airport (KEWR) |
| Time | Latitude | Longitude | Altitude | Speed | Heading |
|---|---|---|---|---|---|
| 2026-05-05 16:32 | 51.17293 | -61.81692 | 39632 ft | 481 kts | 229° |
| 2026-05-05 16:32 | 51.15103 | -61.85720 | 39637 ft | 481 kts | 229° |
| 2026-05-05 16:33 | 51.10711 | -61.93779 | 39638 ft | 481 kts | 228° |
| 2026-05-05 16:33 | 51.06316 | -62.01816 | 39641 ft | 481 kts | 228° |
| 2026-05-05 16:34 | 51.01948 | -62.09779 | 39643 ft | 481 kts | 228° |
| 2026-05-05 16:34 | 50.97540 | -62.17789 | 39640 ft | 481 kts | 228° |
| 2026-05-05 16:35 | 50.93133 | -62.25774 | 39639 ft | 480 kts | 228° |
| 2026-05-05 16:35 | 50.88718 | -62.33745 | 39644 ft | 480 kts | 228° |
| 2026-05-05 16:36 | 50.84335 | -62.41637 | 39651 ft | 480 kts | 228° |
| 2026-05-05 16:36 | 50.79912 | -62.49576 | 39654 ft | 480 kts | 228° |
| 2026-05-05 16:37 | 50.75490 | -62.57488 | 39666 ft | 480 kts | 228° |
| 2026-05-05 16:37 | 50.71060 | -62.65389 | 39670 ft | 480 kts | 228° |
| 2026-05-05 16:38 | 50.66633 | -62.73262 | 39681 ft | 480 kts | 228° |
| 2026-05-05 16:38 | 50.62193 | -62.81132 | 39679 ft | 480 kts | 228° |
| 2026-05-05 16:39 | 50.57778 | -62.88936 | 39679 ft | 481 kts | 228° |
| 2026-05-05 16:39 | 50.53326 | -62.96780 | 39675 ft | 481 kts | 228° |
| 2026-05-05 16:40 | 50.48862 | -63.04621 | 39680 ft | 481 kts | 227° |
| 2026-05-05 16:40 | 50.44391 | -63.12450 | 39685 ft | 482 kts | 227° |
| 2026-05-05 16:41 | 50.39910 | -63.20271 | 39691 ft | 482 kts | 227° |
| 2026-05-05 16:41 | 50.35412 | -63.28101 | 39690 ft | 482 kts | 227° |
| 2026-05-05 16:42 | 50.31678 | -63.34581 | 39690 ft | 482 kts | 227° |
| 2026-05-05 16:42 | 50.27180 | -63.42365 | 39694 ft | 482 kts | 227° |
| 2026-05-05 16:43 | 50.21938 | -63.51409 | 39690 ft | 483 kts | 227° |
| 2026-05-05 16:43 | 50.18150 | -63.57923 | 39689 ft | 483 kts | 227° |
| 2026-05-05 16:44 | 50.13658 | -63.65625 | 39691 ft | 482 kts | 227° |
| 2026-05-05 16:44 | 50.09138 | -63.73354 | 39692 ft | 482 kts | 227° |
| 2026-05-05 16:45 | 50.04612 | -63.81071 | 39689 ft | 481 kts | 227° |
| 2026-05-05 16:45 | 50.00087 | -63.88761 | 39695 ft | 482 kts | 227° |
| 2026-05-05 16:46 | 49.95551 | -63.96448 | 39689 ft | 482 kts | 227° |
| 2026-05-05 16:46 | 49.91045 | -64.04059 | 39692 ft | 482 kts | 227° |
| 2026-05-05 16:47 | 49.86504 | -64.11708 | 39693 ft | 481 kts | 227° |
| 2026-05-05 16:47 | 49.81959 | -64.19340 | 39696 ft | 481 kts | 227° |
| 2026-05-05 16:48 | 49.77423 | -64.26935 | 39695 ft | 480 kts | 227° |
| 2026-05-05 16:48 | 49.72881 | -64.34517 | 39699 ft | 479 kts | 227° |
| 2026-05-05 16:49 | 49.68378 | -64.42012 | 39689 ft | 479 kts | 227° |
| 2026-05-05 16:49 | 49.63850 | -64.49526 | 39686 ft | 477 kts | 227° |
| 2026-05-05 16:50 | 49.59327 | -64.57011 | 39681 ft | 476 kts | 226° |
| 2026-05-05 16:50 | 49.54805 | -64.64471 | 39680 ft | 475 kts | 226° |
| 2026-05-05 16:51 | 49.50282 | -64.71913 | 39664 ft | 476 kts | 226° |
| 2026-05-05 16:51 | 49.45747 | -64.79351 | 39667 ft | 477 kts | 226° |
| 2026-05-05 16:52 | 49.41211 | -64.86770 | 39645 ft | 477 kts | 226° |
| 2026-05-05 16:52 | 49.36659 | -64.94194 | 39660 ft | 477 kts | 226° |
| 2026-05-05 16:53 | 49.32104 | -65.01602 | 39633 ft | 477 kts | 226° |
| 2026-05-05 16:53 | 49.27577 | -65.08942 | 39635 ft | 477 kts | 226° |
| 2026-05-05 16:54 | 49.23012 | -65.16324 | 39640 ft | 477 kts | 226° |
| 2026-05-05 16:54 | 49.18439 | -65.23695 | 39634 ft | 478 kts | 226° |
| 2026-05-05 16:55 | 49.13861 | -65.31054 | 39648 ft | 477 kts | 226° |
| 2026-05-05 16:55 | 49.09272 | -65.38411 | 39645 ft | 478 kts | 226° |
| 2026-05-05 16:56 | 49.04685 | -65.45742 | 39646 ft | 477 kts | 226° |
| 2026-05-05 16:56 | 49.00098 | -65.53054 | 39649 ft | 477 kts | 226° |
| 2026-05-05 16:57 | 48.95502 | -65.60358 | 39655 ft | 477 kts | 226° |
| 2026-05-05 16:57 | 48.90935 | -65.67595 | 39657 ft | 477 kts | 226° |
| 2026-05-05 16:58 | 48.86339 | -65.74859 | 39659 ft | 477 kts | 226° |
| 2026-05-05 16:58 | 48.81726 | -65.82128 | 39661 ft | 477 kts | 226° |
| 2026-05-05 16:59 | 48.77113 | -65.89377 | 39659 ft | 477 kts | 225° |
| 2026-05-05 16:59 | 48.72501 | -65.96604 | 39667 ft | 477 kts | 225° |
| 2026-05-05 17:00 | 48.67889 | -66.03810 | 39672 ft | 477 kts | 225° |
| 2026-05-05 17:00 | 48.63268 | -66.11011 | 39672 ft | 477 kts | 225° |
| 2026-05-05 17:01 | 48.58649 | -66.18186 | 39728 ft | 471 kts | 225° |
| 2026-05-05 17:01 | 48.54056 | -66.25305 | 39665 ft | 475 kts | 225° |
| 2026-05-05 17:02 | 48.49432 | -66.32449 | 39663 ft | 475 kts | 225° |
| 2026-05-05 17:02 | 48.44838 | -66.39530 | 39665 ft | 475 kts | 225° |
| 2026-05-05 17:03 | 48.40210 | -66.46641 | 39665 ft | 475 kts | 225° |
| 2026-05-05 17:03 | 48.35580 | -66.53736 | 39670 ft | 474 kts | 225° |
| 2026-05-05 17:04 | 48.30949 | -66.60814 | 39670 ft | 474 kts | 225° |
| 2026-05-05 17:04 | 48.26345 | -66.67830 | 39666 ft | 474 kts | 226° |
| 2026-05-05 17:05 | 48.21714 | -66.74869 | 39661 ft | 473 kts | 226° |
| 2026-05-05 17:05 | 48.17085 | -66.81885 | 39654 ft | 473 kts | 225° |
| 2026-05-05 17:06 | 48.12447 | -66.88896 | 39657 ft | 473 kts | 226° |
| 2026-05-05 17:06 | 48.07805 | -66.95893 | 39654 ft | 473 kts | 226° |
| 2026-05-05 17:07 | 48.03158 | -67.02880 | 39664 ft | 473 kts | 226° |
| 2026-05-05 17:07 | 47.98510 | -67.09850 | 39662 ft | 473 kts | 226° |
| 2026-05-05 17:08 | 47.93863 | -67.16797 | 39656 ft | 473 kts | 226° |
| 2026-05-05 17:08 | 47.89242 | -67.23688 | 39660 ft | 473 kts | 226° |
| 2026-05-05 17:09 | 47.84588 | -67.30610 | 39657 ft | 472 kts | 226° |
| 2026-05-05 17:09 | 47.79941 | -67.37503 | 39655 ft | 471 kts | 226° |
| 2026-05-05 17:10 | 47.75297 | -67.44374 | 39663 ft | 470 kts | 226° |
| 2026-05-05 17:10 | 47.70655 | -67.51222 | 39658 ft | 470 kts | 225° |
| 2026-05-05 17:11 | 47.66003 | -67.58067 | 39667 ft | 470 kts | 225° |
| 2026-05-05 17:11 | 47.61350 | -67.64896 | 39674 ft | 471 kts | 225° |
| 2026-05-05 17:12 | 47.56689 | -67.71717 | 39669 ft | 470 kts | 225° |
| 2026-05-05 17:12 | 47.51997 | -67.78354 | 39687 ft | 469 kts | 222° |
| 2026-05-05 17:13 | 47.47082 | -67.84743 | 39672 ft | 470 kts | 223° |
| 2026-05-05 17:13 | 47.42168 | -67.91111 | 39671 ft | 469 kts | 223° |
| 2026-05-05 17:14 | 47.37259 | -67.97453 | 39662 ft | 468 kts | 223° |
| 2026-05-05 17:14 | 47.32395 | -68.03726 | 39657 ft | 467 kts | 223° |
| 2026-05-05 17:15 | 47.27556 | -68.09946 | 39655 ft | 466 kts | 223° |
| 2026-05-05 17:15 | 47.22670 | -68.16215 | 39653 ft | 465 kts | 223° |
| 2026-05-05 17:16 | 47.17791 | -68.22457 | 39652 ft | 464 kts | 223° |
| 2026-05-05 17:16 | 47.12918 | -68.28675 | 39653 ft | 463 kts | 223° |
| 2026-05-05 17:17 | 47.08048 | -68.34874 | 39660 ft | 463 kts | 223° |
| 2026-05-05 17:17 | 47.03210 | -68.41018 | 39662 ft | 463 kts | 223° |
| 2026-05-05 17:18 | 46.98344 | -68.47180 | 39678 ft | 461 kts | 223° |
| 2026-05-05 17:18 | 46.93486 | -68.53318 | 39678 ft | 462 kts | 223° |
| 2026-05-05 17:19 | 46.88613 | -68.59460 | 39671 ft | 461 kts | 223° |
| 2026-05-05 17:19 | 46.83750 | -68.65573 | 39669 ft | 461 kts | 222° |
| 2026-05-05 17:20 | 46.78880 | -68.71680 | 39676 ft | 460 kts | 222° |
| 2026-05-05 17:20 | 46.74015 | -68.77766 | 39668 ft | 461 kts | 222° |
| 2026-05-05 17:21 | 46.69145 | -68.83843 | 39674 ft | 460 kts | 222° |
| 2026-05-05 17:22 | 46.61855 | -68.92912 | 39674 ft | 459 kts | 222° |
| 2026-05-05 17:22 | 46.57030 | -68.98896 | 39681 ft | 458 kts | 222° |
| 2026-05-05 17:23 | 46.52175 | -69.04903 | 39684 ft | 458 kts | 222° |
| 2026-05-05 17:23 | 46.47322 | -69.10892 | 39685 ft | 457 kts | 222° |
| 2026-05-05 17:24 | 46.42477 | -69.16858 | 39684 ft | 456 kts | 222° |
| 2026-05-05 17:24 | 46.37638 | -69.22802 | 39688 ft | 455 kts | 222° |
| 2026-05-05 17:25 | 46.32802 | -69.28727 | 39692 ft | 455 kts | 222° |
| 2026-05-05 17:25 | 46.27994 | -69.34604 | 39694 ft | 454 kts | 222° |
| 2026-05-05 17:26 | 46.23163 | -69.40496 | 39698 ft | 454 kts | 222° |
| 2026-05-05 17:26 | 46.19153 | -69.45375 | 39691 ft | 453 kts | 222° |
| 2026-05-05 17:27 | 46.14320 | -69.51244 | 39691 ft | 454 kts | 222° |
| 2026-05-05 17:27 | 46.08711 | -69.58036 | 39690 ft | 453 kts | 222° |
| 2026-05-05 17:28 | 46.04660 | -69.62930 | 39691 ft | 453 kts | 222° |
| 2026-05-05 17:28 | 45.99867 | -69.68709 | 39696 ft | 452 kts | 222° |
| 2026-05-05 17:29 | 45.95053 | -69.74499 | 39711 ft | 451 kts | 222° |
| 2026-05-05 17:29 | 45.90225 | -69.80292 | 39708 ft | 450 kts | 222° |
| 2026-05-05 17:30 | 45.85418 | -69.86046 | 39707 ft | 450 kts | 222° |
| 2026-05-05 17:30 | 45.80634 | -69.91760 | 39706 ft | 449 kts | 222° |
| 2026-05-05 17:31 | 45.75818 | -69.97500 | 39716 ft | 450 kts | 222° |
| 2026-05-05 17:31 | 45.73408 | -70.00364 | 39459 ft | 449 kts | 222° |
| 2026-05-05 17:31 | 45.71042 | -70.03172 | 39599 ft | 431 kts | 222° |
| 2026-05-05 17:31 | 45.68771 | -70.05866 | 39705 ft | 419 kts | 222° |
| 2026-05-05 17:32 | 45.66526 | -70.08533 | 39710 ft | 421 kts | 222° |
| 2026-05-05 17:32 | 45.61972 | -70.13926 | 39715 ft | 429 kts | 222° |
| 2026-05-05 17:33 | 45.57390 | -70.19334 | 39713 ft | 431 kts | 222° |
| 2026-05-05 17:33 | 45.52772 | -70.24777 | 39716 ft | 430 kts | 222° |
| 2026-05-05 17:34 | 45.48152 | -70.30209 | 39719 ft | 430 kts | 222° |
| 2026-05-05 17:34 | 45.43535 | -70.35627 | 39716 ft | 430 kts | 222° |
| 2026-05-05 17:35 | 45.38914 | -70.41036 | 39718 ft | 430 kts | 222° |
| 2026-05-05 17:35 | 45.34284 | -70.46444 | 39715 ft | 429 kts | 222° |
| 2026-05-05 17:36 | 45.29666 | -70.51827 | 39726 ft | 429 kts | 222° |
| 2026-05-05 17:36 | 45.25067 | -70.57177 | 39722 ft | 430 kts | 222° |
| 2026-05-05 17:37 | 45.20428 | -70.62560 | 39726 ft | 431 kts | 221° |
| 2026-05-05 17:37 | 45.15778 | -70.67944 | 39729 ft | 432 kts | 221° |
| 2026-05-05 17:38 | 45.11122 | -70.73325 | 39728 ft | 432 kts | 221° |
| 2026-05-05 17:38 | 45.06458 | -70.78702 | 39748 ft | 432 kts | 221° |
| 2026-05-05 17:39 | 45.01788 | -70.84075 | 39744 ft | 433 kts | 221° |
| 2026-05-05 17:39 | 44.97113 | -70.89442 | 39752 ft | 433 kts | 221° |
| 2026-05-05 17:40 | 44.92471 | -70.94759 | 39753 ft | 432 kts | 221° |
| 2026-05-05 17:40 | 44.87808 | -71.00088 | 39748 ft | 431 kts | 221° |
| 2026-05-05 17:41 | 44.83146 | -71.05407 | 39739 ft | 431 kts | 221° |
| 2026-05-05 17:41 | 44.78469 | -71.10729 | 39736 ft | 432 kts | 221° |
| 2026-05-05 17:42 | 44.73798 | -71.16034 | 39735 ft | 432 kts | 221° |
| 2026-05-05 17:42 | 44.69124 | -71.21331 | 39731 ft | 432 kts | 221° |
| 2026-05-05 17:43 | 44.64455 | -71.26611 | 39731 ft | 433 kts | 221° |
| 2026-05-05 17:43 | 44.59769 | -71.31899 | 39731 ft | 433 kts | 221° |
| 2026-05-05 17:44 | 44.55070 | -71.37190 | 39729 ft | 433 kts | 221° |
| 2026-05-05 17:44 | 44.50358 | -71.42486 | 39740 ft | 434 kts | 221° |
| 2026-05-05 17:45 | 44.45640 | -71.47775 | 39760 ft | 434 kts | 221° |
| 2026-05-05 17:45 | 44.40912 | -71.53065 | 39753 ft | 436 kts | 221° |
| 2026-05-05 17:46 | 44.36180 | -71.58348 | 39751 ft | 435 kts | 221° |
| 2026-05-05 17:46 | 44.31473 | -71.63592 | 39760 ft | 435 kts | 221° |
| 2026-05-05 17:47 | 44.26733 | -71.68862 | 39753 ft | 435 kts | 221° |
| 2026-05-05 17:47 | 44.22040 | -71.74190 | 39745 ft | 433 kts | 227° |
| 2026-05-05 17:48 | 44.18244 | -71.80647 | 39745 ft | 431 kts | 234° |
| 2026-05-05 17:48 | 44.14679 | -71.87372 | 39732 ft | 431 kts | 235° |
| 2026-05-05 17:49 | 44.11120 | -71.94093 | 39724 ft | 431 kts | 234° |
| 2026-05-05 17:49 | 44.07550 | -72.00805 | 39711 ft | 431 kts | 234° |
| 2026-05-05 17:50 | 44.03980 | -72.07510 | 39718 ft | 431 kts | 234° |
| 2026-05-05 17:50 | 44.00404 | -72.14207 | 39715 ft | 431 kts | 234° |
| 2026-05-05 17:51 | 43.96846 | -72.20856 | 39732 ft | 432 kts | 234° |
| 2026-05-05 17:51 | 43.93252 | -72.27558 | 39733 ft | 433 kts | 234° |
| 2026-05-05 17:52 | 43.90235 | -72.33171 | 39746 ft | 434 kts | 234° |
| 2026-05-05 17:52 | 43.86034 | -72.40968 | 39742 ft | 434 kts | 234° |
| 2026-05-05 17:53 | 43.82407 | -72.47684 | 39746 ft | 434 kts | 234° |
| 2026-05-05 17:53 | 43.78781 | -72.54383 | 39751 ft | 435 kts | 234° |
| 2026-05-05 17:54 | 43.75147 | -72.61080 | 39749 ft | 435 kts | 234° |
| 2026-05-05 17:54 | 43.71523 | -72.67745 | 39736 ft | 435 kts | 234° |
| 2026-05-05 17:55 | 43.67878 | -72.74433 | 39742 ft | 435 kts | 234° |
| 2026-05-05 17:55 | 43.64227 | -72.81116 | 39755 ft | 435 kts | 234° |
| 2026-05-05 17:56 | 43.60577 | -72.87782 | 39761 ft | 434 kts | 234° |
| 2026-05-05 17:56 | 43.58774 | -72.91069 | 39348 ft | 429 kts | 233° |
| 2026-05-05 17:56 | 43.56970 | -72.94355 | 38779 ft | 428 kts | 233° |
| 2026-05-05 17:56 | 43.55202 | -72.97572 | 38241 ft | 425 kts | 233° |
| 2026-05-05 17:57 | 43.53390 | -73.00862 | 37450 ft | 426 kts | 233° |
| 2026-05-05 17:57 | 43.51617 | -73.04081 | 36712 ft | 425 kts | 234° |
| 2026-05-05 17:57 | 43.49834 | -73.07314 | 36078 ft | 423 kts | 234° |
| 2026-05-05 17:57 | 43.48056 | -73.10532 | 35441 ft | 421 kts | 234° |
| 2026-05-05 17:58 | 43.46278 | -73.13751 | 34798 ft | 421 kts | 235° |
| 2026-05-05 17:58 | 43.44501 | -73.16963 | 34123 ft | 423 kts | 235° |
| 2026-05-05 17:58 | 43.42711 | -73.20196 | 33387 ft | 427 kts | 235° |
| 2026-05-05 17:58 | 43.40906 | -73.23453 | 32666 ft | 430 kts | 235° |
| 2026-05-05 17:59 | 43.39075 | -73.26751 | 31888 ft | 435 kts | 235° |
| 2026-05-05 17:59 | 43.37230 | -73.30069 | 31085 ft | 439 kts | 234° |
| 2026-05-05 17:59 | 43.35396 | -73.33366 | 30285 ft | 440 kts | 234° |
| 2026-05-05 17:59 | 43.33538 | -73.36700 | 29434 ft | 438 kts | 234° |
| 2026-05-05 18:00 | 43.31695 | -73.40002 | 28652 ft | 433 kts | 234° |
| 2026-05-05 18:00 | 43.29867 | -73.43277 | 27862 ft | 429 kts | 234° |
| 2026-05-05 18:00 | 43.28061 | -73.46509 | 27105 ft | 425 kts | 234° |
| 2026-05-05 18:00 | 43.26264 | -73.49721 | 26342 ft | 421 kts | 234° |
| 2026-05-05 18:01 | 43.24488 | -73.52891 | 25593 ft | 417 kts | 234° |
| 2026-05-05 18:01 | 43.22714 | -73.56022 | 24850 ft | 414 kts | 231° |
| 2026-05-05 18:01 | 43.20681 | -73.58808 | 24140 ft | 413 kts | 223° |
| 2026-05-05 18:01 | 43.18393 | -73.61069 | 23750 ft | 405 kts | 214° |
| 2026-05-05 18:02 | 43.15921 | -73.62794 | 23738 ft | 397 kts | 206° |
| 2026-05-05 18:02 | 43.13277 | -73.64031 | 23735 ft | 409 kts | 201° |
| 2026-05-05 18:02 | 43.10530 | -73.65220 | 23726 ft | 413 kts | 201° |
| 2026-05-05 18:02 | 43.07777 | -73.66392 | 23745 ft | 414 kts | 201° |
| 2026-05-05 18:03 | 43.05021 | -73.67549 | 23756 ft | 414 kts | 201° |
| 2026-05-05 18:03 | 43.02259 | -73.68715 | 23757 ft | 414 kts | 201° |
| 2026-05-05 18:03 | 42.99622 | -73.70109 | 23767 ft | 409 kts | 212° |
| 2026-05-05 18:03 | 42.97274 | -73.72261 | 23754 ft | 405 kts | 221° |
| 2026-05-05 18:04 | 42.95817 | -73.73916 | 23748 ft | 404 kts | 224° |
| 2026-05-05 18:04 | 42.93050 | -73.77394 | 23744 ft | 404 kts | 226° |
| 2026-05-05 18:04 | 42.91711 | -73.79152 | 23750 ft | 403 kts | 226° |
| 2026-05-05 18:04 | 42.89064 | -73.82685 | 23745 ft | 403 kts | 227° |
| 2026-05-05 18:05 | 42.87715 | -73.84498 | 23746 ft | 402 kts | 227° |
| 2026-05-05 18:05 | 42.85075 | -73.88050 | 23751 ft | 402 kts | 227° |
| 2026-05-05 18:05 | 42.83084 | -73.90729 | 23749 ft | 402 kts | 227° |
| 2026-05-05 18:05 | 42.81737 | -73.92542 | 23746 ft | 402 kts | 227° |
| 2026-05-05 18:06 | 42.79053 | -73.96022 | 23744 ft | 404 kts | 220° |
| 2026-05-05 18:06 | 42.78279 | -73.96772 | 23752 ft | 406 kts | 215° |
| 2026-05-05 18:06 | 42.73911 | -73.99310 | 23751 ft | 415 kts | 201° |
| 2026-05-05 18:06 | 42.71127 | -74.00356 | 23754 ft | 416 kts | 199° |
| 2026-05-05 18:07 | 42.68329 | -74.01385 | 23763 ft | 416 kts | 200° |
| 2026-05-05 18:07 | 42.65553 | -74.02494 | 23768 ft | 416 kts | 201° |
| 2026-05-05 18:07 | 42.62775 | -74.03636 | 23766 ft | 417 kts | 201° |
| 2026-05-05 18:07 | 42.59994 | -74.04767 | 23770 ft | 417 kts | 198° |
| 2026-05-05 18:08 | 42.57094 | -74.05258 | 23618 ft | 419 kts | 185° |
| 2026-05-05 18:08 | 42.54194 | -74.04894 | 22633 ft | 430 kts | 174° |
| 2026-05-05 18:08 | 42.51290 | -74.03963 | 21946 ft | 427 kts | 170° |
| 2026-05-05 18:08 | 42.48435 | -74.02844 | 21221 ft | 424 kts | 168° |
| 2026-05-05 18:09 | 42.45628 | -74.01683 | 20510 ft | 418 kts | 170° |
| 2026-05-05 18:09 | 42.42799 | -74.01208 | 19802 ft | 404 kts | 187° |
| 2026-05-05 18:09 | 42.41856 | -74.01290 | 19573 ft | 399 kts | 191° |
| 2026-05-05 18:09 | 42.37403 | -74.02550 | 18412 ft | 389 kts | 199° |
| 2026-05-05 18:10 | 42.34832 | -74.03542 | 17686 ft | 385 kts | 200° |
| 2026-05-05 18:10 | 42.32267 | -74.04581 | 16964 ft | 380 kts | 201° |
| 2026-05-05 18:10 | 42.29759 | -74.05614 | 16274 ft | 375 kts | 201° |
| 2026-05-05 18:10 | 42.28083 | -74.06307 | 15934 ft | 369 kts | 202° |
| 2026-05-05 18:11 | 42.25698 | -74.07292 | 15895 ft | 359 kts | 202° |
| 2026-05-05 18:11 | 42.23276 | -74.08303 | 15899 ft | 369 kts | 202° |
| 2026-05-05 18:11 | 42.20822 | -74.09329 | 15904 ft | 369 kts | 202° |
| 2026-05-05 18:11 | 42.18362 | -74.10357 | 15909 ft | 371 kts | 202° |
| 2026-05-05 18:12 | 42.15899 | -74.11386 | 15908 ft | 371 kts | 202° |
| 2026-05-05 18:12 | 42.13432 | -74.12416 | 15909 ft | 370 kts | 202° |
| 2026-05-05 18:12 | 42.10925 | -74.13266 | 15901 ft | 378 kts | 191° |
| 2026-05-05 18:12 | 42.08268 | -74.13141 | 15895 ft | 384 kts | 179° |
| 2026-05-05 18:13 | 42.05636 | -74.12594 | 15087 ft | 385 kts | 175° |
| 2026-05-05 18:13 | 42.03023 | -74.11886 | 14391 ft | 382 kts | 174° |
| 2026-05-05 18:13 | 42.00436 | -74.11124 | 13720 ft | 378 kts | 174° |
| 2026-05-05 18:13 | 41.97883 | -74.10355 | 12983 ft | 373 kts | 174° |
| 2026-05-05 18:14 | 41.95365 | -74.09589 | 12332 ft | 368 kts | 174° |
| 2026-05-05 18:14 | 41.92938 | -74.08851 | 12162 ft | 346 kts | 175° |
| 2026-05-05 18:14 | 41.90671 | -74.08828 | 11972 ft | 313 kts | 196° |
| 2026-05-05 18:14 | 41.88611 | -74.09458 | 11776 ft | 294 kts | 201° |
| 2026-05-05 18:15 | 41.86699 | -74.10197 | 11576 ft | 279 kts | 203° |
| 2026-05-05 18:15 | 41.84886 | -74.10932 | 11394 ft | 266 kts | 204° |
| 2026-05-05 18:15 | 41.83166 | -74.11640 | 11207 ft | 257 kts | 204° |
| 2026-05-05 18:15 | 41.81473 | -74.12341 | 11055 ft | 253 kts | 204° |
| 2026-05-05 18:16 | 41.79794 | -74.13040 | 10891 ft | 253 kts | 204° |
| 2026-05-05 18:16 | 41.78111 | -74.13743 | 10734 ft | 253 kts | 204° |
| 2026-05-05 18:16 | 41.76432 | -74.14444 | 10556 ft | 252 kts | 204° |
| 2026-05-05 18:16 | 41.74773 | -74.15135 | 10409 ft | 248 kts | 204° |
| 2026-05-05 18:17 | 41.73114 | -74.15827 | 10249 ft | 249 kts | 204° |
| 2026-05-05 18:17 | 41.71458 | -74.16519 | 10101 ft | 249 kts | 204° |
| 2026-05-05 18:17 | 41.69805 | -74.17209 | 9938 ft | 247 kts | 204° |
| 2026-05-05 18:17 | 41.68168 | -74.17897 | 9776 ft | 246 kts | 204° |
| 2026-05-05 18:18 | 41.66547 | -74.18607 | 9613 ft | 245 kts | 205° |
| 2026-05-05 18:18 | 41.64927 | -74.19324 | 9434 ft | 244 kts | 205° |
| 2026-05-05 18:18 | 41.63327 | -74.20044 | 9270 ft | 241 kts | 207° |
| 2026-05-05 18:18 | 41.62034 | -74.21298 | 9205 ft | 224 kts | 230° |
| 2026-05-05 18:19 | 41.61008 | -74.22900 | 9206 ft | 231 kts | 232° |
| 2026-05-05 18:19 | 41.59964 | -74.24564 | 8986 ft | 231 kts | 232° |
| 2026-05-05 18:19 | 41.58945 | -74.26177 | 8979 ft | 227 kts | 231° |
| 2026-05-05 18:19 | 41.57932 | -74.27775 | 8912 ft | 228 kts | 231° |
| 2026-05-05 18:20 | 41.56912 | -74.29380 | 8925 ft | 227 kts | 231° |
| 2026-05-05 18:20 | 41.55890 | -74.30989 | 8941 ft | 227 kts | 231° |
| 2026-05-05 18:20 | 41.54843 | -74.32570 | 8931 ft | 227 kts | 225° |
| 2026-05-05 18:20 | 41.53508 | -74.33733 | 8938 ft | 233 kts | 210° |
| 2026-05-05 18:21 | 41.51952 | -74.34433 | 8938 ft | 238 kts | 204° |
| 2026-05-05 18:21 | 41.50376 | -74.35124 | 8435 ft | 240 kts | 204° |
| 2026-05-05 18:21 | 41.48799 | -74.35808 | 8135 ft | 234 kts | 204° |
| 2026-05-05 18:21 | 41.47242 | -74.36483 | 7874 ft | 238 kts | 203° |
| 2026-05-05 18:22 | 41.45668 | -74.37160 | 7602 ft | 234 kts | 203° |
| 2026-05-05 18:22 | 41.44109 | -74.37833 | 7338 ft | 237 kts | 202° |
| 2026-05-05 18:22 | 41.42559 | -74.38497 | 7056 ft | 234 kts | 202° |
| 2026-05-05 18:22 | 41.40996 | -74.39171 | 6925 ft | 234 kts | 202° |
| 2026-05-05 18:23 | 41.39440 | -74.39845 | 6939 ft | 236 kts | 202° |
| 2026-05-05 18:23 | 41.37869 | -74.40520 | 6954 ft | 239 kts | 202° |
| 2026-05-05 18:23 | 41.36279 | -74.41203 | 6956 ft | 240 kts | 202° |
| 2026-05-05 18:23 | 41.34694 | -74.41883 | 6957 ft | 239 kts | 202° |
| 2026-05-05 18:24 | 41.33123 | -74.42558 | 6957 ft | 240 kts | 202° |
| 2026-05-05 18:24 | 41.31531 | -74.43243 | 6960 ft | 240 kts | 202° |
| 2026-05-05 18:24 | 41.29947 | -74.43920 | 6955 ft | 238 kts | 202° |
| 2026-05-05 18:24 | 41.28348 | -74.44541 | 6943 ft | 242 kts | 192° |
| 2026-05-05 18:25 | 41.26636 | -74.44355 | 6947 ft | 246 kts | 176° |
| 2026-05-05 18:25 | 41.25538 | -74.44070 | 6944 ft | 241 kts | 175° |
| 2026-05-05 18:25 | 41.23373 | -74.43448 | 6942 ft | 238 kts | 174° |
| 2026-05-05 18:25 | 41.21793 | -74.42981 | 6966 ft | 230 kts | 175° |
| 2026-05-05 18:26 | 41.20240 | -74.42528 | 6767 ft | 228 kts | 174° |
| 2026-05-05 18:26 | 41.19714 | -74.42374 | 6683 ft | 227 kts | 174° |
| 2026-05-05 18:26 | 41.18165 | -74.41922 | 6445 ft | 226 kts | 174° |
| 2026-05-05 18:26 | 41.16723 | -74.41022 | 6180 ft | 239 kts | 147° |
| 2026-05-05 18:27 | 41.15579 | -74.39387 | 5971 ft | 243 kts | 136° |
| 2026-05-05 18:27 | 41.14542 | -74.37644 | 5966 ft | 241 kts | 135° |
| 2026-05-05 18:27 | 41.13511 | -74.35877 | 5970 ft | 244 kts | 135° |
| 2026-05-05 18:27 | 41.12477 | -74.34097 | 5969 ft | 244 kts | 134° |
| 2026-05-05 18:28 | 41.10408 | -74.30529 | 5969 ft | 245 kts | 135° |
| 2026-05-05 18:28 | 41.09384 | -74.28764 | 5968 ft | 245 kts | 134° |
| 2026-05-05 18:28 | 41.08344 | -74.26971 | 5967 ft | 245 kts | 135° |
| 2026-05-05 18:29 | 41.07280 | -74.25209 | 5950 ft | 242 kts | 141° |
| 2026-05-05 18:29 | 41.05971 | -74.23950 | 5953 ft | 221 kts | 158° |
| 2026-05-05 18:29 | 41.04636 | -74.23055 | 5967 ft | 214 kts | 161° |
| 2026-05-05 18:29 | 41.03318 | -74.22139 | 5955 ft | 211 kts | 158° |
| 2026-05-05 18:30 | 41.02027 | -74.21151 | 5760 ft | 213 kts | 157° |
| 2026-05-05 18:30 | 41.00751 | -74.20158 | 5547 ft | 211 kts | 158° |
| 2026-05-05 18:30 | 40.99487 | -74.19191 | 5351 ft | 210 kts | 158° |
| 2026-05-05 18:30 | 40.98217 | -74.18220 | 5146 ft | 209 kts | 157° |
| 2026-05-05 18:31 | 40.96950 | -74.17254 | 4832 ft | 212 kts | 157° |
| 2026-05-05 18:31 | 40.95676 | -74.16279 | 4499 ft | 210 kts | 157° |
| 2026-05-05 18:31 | 40.94419 | -74.15322 | 4190 ft | 208 kts | 157° |
| 2026-05-05 18:31 | 40.93173 | -74.14376 | 3932 ft | 202 kts | 156° |
| 2026-05-05 18:32 | 40.91981 | -74.13483 | 3759 ft | 192 kts | 157° |
| 2026-05-05 18:32 | 40.90864 | -74.12649 | 3575 ft | 184 kts | 158° |
| 2026-05-05 18:32 | 40.89766 | -74.11831 | 3393 ft | 179 kts | 158° |
| 2026-05-05 18:32 | 40.88679 | -74.11022 | 3200 ft | 179 kts | 158° |
| 2026-05-05 18:33 | 40.87625 | -74.10232 | 3074 ft | 169 kts | 158° |
| 2026-05-05 18:33 | 40.86627 | -74.09483 | 2984 ft | 164 kts | 158° |
| 2026-05-05 18:33 | 40.85617 | -74.08737 | 2958 ft | 171 kts | 158° |
| 2026-05-05 18:33 | 40.84564 | -74.07957 | 2972 ft | 174 kts | 158° |
| 2026-05-05 18:34 | 40.83441 | -74.07691 | 2816 ft | 163 kts | 197° |
| 2026-05-05 18:34 | 40.82382 | -74.08209 | 2686 ft | 162 kts | 203° |
| 2026-05-05 18:34 | 40.81360 | -74.08782 | 2461 ft | 157 kts | 206° |
| 2026-05-05 18:34 | 40.80373 | -74.09378 | 2274 ft | 158 kts | 207° |
| 2026-05-05 18:35 | 40.79378 | -74.10015 | 2051 ft | 158 kts | 206° |
| 2026-05-05 18:35 | 40.78391 | -74.10640 | 1836 ft | 155 kts | 207° |
| 2026-05-05 18:35 | 40.77437 | -74.11251 | 1652 ft | 147 kts | 207° |
| 2026-05-05 18:35 | 40.76553 | -74.11812 | 1467 ft | 138 kts | 208° |
| 2026-05-05 18:36 | 40.75689 | -74.12371 | 1290 ft | 141 kts | 206° |
| 2026-05-05 18:36 | 40.74804 | -74.12931 | 1087 ft | 139 kts | 204° |
| 2026-05-05 18:36 | 40.73914 | -74.13496 | 882 ft | 145 kts | 205° |
| 2026-05-05 18:36 | 40.73001 | -74.14082 | 684 ft | 145 kts | 203° |
| 2026-05-05 18:37 | 40.72101 | -74.14659 | 506 ft | 145 kts | 204° |
| 2026-05-05 18:37 | 40.71196 | -74.15236 | 335 ft | 145 kts | 205° |
| 2026-05-05 18:37 | 40.70290 | -74.15814 | 164 ft | 143 kts | 205° |
| 2026-05-05 18:37 | 40.69421 | -74.16368 | 31 ft | 126 kts | 206° |
| 2026-05-05 18:38 | 40.68813 | -74.16755 | 27 ft | 69 kts | 206° |
| 2026-05-05 18:38 | 40.68553 | -74.16961 | 27 ft | 24 kts | 231° |
| 2026-05-05 18:38 | 40.68502 | -74.17066 | 28 ft | 12 kts | 251° |
| 2026-05-05 18:38 | 40.68533 | -74.17130 | 28 ft | 9 kts | 346° |
| 2026-05-05 18:39 | 40.68598 | -74.17111 | 28 ft | 10 kts | 26° |
| 2026-05-05 18:39 | 40.68668 | -74.17066 | 28 ft | 12 kts | 26° |
| 2026-05-05 18:39 | 40.68749 | -74.17014 | 27 ft | 14 kts | 26° |
| 2026-05-05 18:39 | 40.68842 | -74.16955 | 27 ft | 16 kts | 26° |
| 2026-05-05 18:40 | 40.68943 | -74.16890 | 27 ft | 17 kts | 26° |
| 2026-05-05 18:40 | 40.69007 | -74.16872 | 28 ft | 4 kts | 327° |
| 2026-05-05 18:40 | 40.69049 | -74.16956 | 28 ft | 14 kts | 296° |
| 2026-05-05 18:40 | 40.69096 | -74.17078 | 27 ft | 13 kts | 303° |
| 2026-05-05 18:41 | 40.69118 | -74.17092 | 27 ft | 2 kts | 9° |
| 2026-05-05 18:41 | 40.69136 | -74.17086 | 27 ft | 4 kts | 19° |
| 2026-05-05 18:41 | 40.69171 | -74.17069 | 27 ft | 6 kts | 22° |
| 2026-05-05 18:41 | 40.69200 | -74.17070 | 27 ft | 6 kts | 337° |
| 2026-05-05 18:42 | 40.69222 | -74.17132 | 27 ft | 8 kts | 262° |
| 2026-05-05 18:42 | 40.69189 | -74.17189 | 27 ft | 7 kts | 244° |
| 2026-05-05 18:42 | 40.69182 | -74.17245 | 27 ft | 4 kts | 266° |
| 2026-05-05 18:42 | 40.69184 | -74.17285 | 27 ft | 5 kts | 274° |
| 2026-05-05 18:43 | 40.69187 | -74.17330 | 27 ft | 3 kts | 275° |
| 2026-05-05 18:43 | 40.69187 | -74.17332 | 27 ft | 0 kts | 275° |